Etusivu
METAR-TAF:

METAR-TAF

Lentoasemat :

Winchester, Tennessee, Yhdysvallat

Leveyspiiri: 35-10-39N, Pituuspiiri: 086-03-58W, korkeus merenpinnasta: 298 m

Tämänhetkinen sää

Tämä raportti tehtiin 18 minuuttia sitten, kello 23.55 UTC
Tuuli 6 kn lounaasta
Lämpötila 17°C
Kosteus 82%
Ilmanpaine 1008 hPa
Näkyvyys: 16.1 km
selkeää

METAR: KBGF 252355Z AUTO 22006KT 10SM CLR 17/14 A2977 RMK A01

Aika: 19:13 (00:13 UTC)


TAF: puuttuu

Säähavainnot ja -ennusteet yli 4000 lentoasemalta (METAR- ja TAF-raportit).

Käytössä olevat sääasemat on merkitty karttaan keltaisilla ja punaisilla pisteillä.

Aseta hiiri pisteen päälle nähdäksesi sääaseman nimen.

Klikkaa sitten nähdäksesi säähavainnot ja -ennusteet.

Kartan vaihtaminen: klikkaa mustalla rastilla varustettuja vihreitä pisteitä, niin voit zoomata sisään; viivalla varustettua vihreää pistettä, niin voit zoomata ulos tai vihreitä nuolia, niin pääset viereisille kartoille.


METAR-TAF: